Time;durP1;ratioP1;P1;durP2;ratioP2;P2;SDS_P1;SDS_P2;PMS_P1;PMS_P2;Temp;Humidity;BMP_temperature;BMP_pressure;BME280_temperature;BME280_humidity;BME280_pressure;Samples;Min_cycle;Max_cycle;Signal;HPM_P1;HPM_P2
2022/11/16 00:01:21;;;;;;;91.47;32.47;;;9.10;99.90;;;;;;6258252;23;20031;-79
2022/11/16 00:03:47;;;;;;;89.38;33.20;;;9.10;99.90;;;;;;6229864;23;20091;-79
2022/11/16 00:06:14;;;;;;;97.70;32.83;;;9.10;99.90;;;;;;6259161;23;20015;-78
2022/11/16 00:09:20;;;;;;;84.65;32.15;;;9.00;99.90;;;;;;6262848;23;20013;-78
2022/11/16 00:11:32;;;;;;;105.82;35.95;;;9.00;99.90;;;;;;6261196;23;20000;-78
2022/11/16 00:13:58;;;;;;;98.80;36.10;;;9.00;99.90;;;;;;6229908;23;20000;-80
2022/11/16 00:16:24;;;;;;;93.85;35.20;;;9.00;99.90;;;;;;6225992;23;20099;-78
2022/11/16 00:18:58;;;;;;;101.65;33.95;;;9.00;99.90;;;;;;6255997;23;20056;-78
2022/11/16 00:21:25;;;;;;;95.15;33.75;;;9.10;99.90;;;;;;6259895;23;20032;-78
2022/11/16 00:23:51;;;;;;;94.90;34.42;;;9.10;99.90;;;;;;6254368;23;20000;-80
2022/11/16 00:26:17;;;;;;;104.30;33.72;;;9.10;99.90;;;;;;6252142;23;20004;-82
2022/11/16 00:28:43;;;;;;;102.13;35.50;;;9.10;99.90;;;;;;6201246;23;20167;-78
2022/11/16 00:31:09;;;;;;;122.75;37.22;;;9.10;99.90;;;;;;6204041;23;20038;-80
2022/11/16 00:33:35;;;;;;;109.18;37.17;;;9.10;99.90;;;;;;6255025;23;20075;-80
2022/11/16 00:36:06;;;;;;;122.35;37.72;;;9.00;99.90;;;;;;6252552;23;20091;-80
2022/11/16 00:38:32;;;;;;;131.13;39.75;;;9.00;99.90;;;;;;6225458;23;20051;-79
2022/11/16 00:40:58;;;;;;;118.72;36.28;;;9.00;99.90;;;;;;6253544;23;20000;-80
2022/11/16 00:43:27;;;;;;;119.72;38.78;;;9.00;99.90;;;;;;6254224;23;20032;-79
2022/11/16 00:45:53;;;;;;;129.15;38.70;;;9.00;99.90;;;;;;6224839;23;20292;-80
2022/11/16 00:48:20;;;;;;;120.45;37.78;;;9.00;99.90;;;;;;6252242;23;20011;-80
2022/11/16 00:50:46;;;;;;;128.02;38.67;;;8.90;99.90;;;;;;6224739;23;20004;-80
2022/11/16 00:53:15;;;;;;;120.97;40.42;;;8.90;99.90;;;;;;6225091;23;20004;-80
2022/11/16 00:55:42;;;;;;;135.35;40.45;;;8.90;99.90;;;;;;6252424;23;20011;-80
2022/11/16 00:58:08;;;;;;;127.88;40.85;;;8.80;99.90;;;;;;6227267;23;20018;-80
2022/11/16 01:00:33;;;;;;;140.07;42.38;;;8.90;99.90;;;;;;6227857;23;20076;-79
2022/11/16 01:03:01;;;;;;;127.43;40.03;;;8.90;99.90;;;;;;6231398;23;20008;-80
2022/11/16 01:05:27;;;;;;;130.85;40.60;;;8.90;99.90;;;;;;6234912;23;20105;-80
2022/11/16 01:07:52;;;;;;;134.73;39.85;;;8.90;99.90;;;;;;6234175;23;20011;-79
2022/11/16 01:10:21;;;;;;;139.15;41.30;;;8.90;99.90;;;;;;6260539;23;20016;-80
2022/11/16 01:12:48;;;;;;;125.32;40.90;;;8.80;99.90;;;;;;6234594;23;20629;-81
2022/11/16 01:15:15;;;;;;;123.18;40.10;;;8.90;99.90;;;;;;6255841;23;20457;-80
2022/11/16 01:17:42;;;;;;;129.07;40.10;;;8.90;99.90;;;;;;6253640;23;20291;-81
2022/11/16 01:20:13;;;;;;;142.63;43.35;;;8.90;99.90;;;;;;6254177;23;20000;-80
2022/11/16 01:22:40;;;;;;;134.20;41.75;;;8.80;99.90;;;;;;6256335;23;20008;-81
2022/11/16 01:25:06;;;;;;;148.43;44.78;;;8.80;99.90;;;;;;6149384;23;1313010;-80
2022/11/16 01:27:32;;;;;;;136.85;42.00;;;8.80;99.90;;;;;;6258347;23;20000;-80
2022/11/16 01:30:00;;;;;;;133.18;42.08;;;8.80;99.90;;;;;;6233275;23;20067;-78
2022/11/16 01:32:26;;;;;;;141.65;42.78;;;8.80;99.90;;;;;;6236327;23;20007;-80
2022/11/16 01:34:52;;;;;;;137.70;42.53;;;8.80;99.90;;;;;;6237426;23;20000;-80
2022/11/16 01:37:28;;;;;;;139.70;42.13;;;8.80;99.90;;;;;;6238644;23;20004;-80
2022/11/16 01:39:55;;;;;;;145.07;41.50;;;8.80;99.90;;;;;;6266130;23;20020;-80
2022/11/16 01:42:24;;;;;;;142.10;43.72;;;8.80;99.90;;;;;;6231806;23;20004;-80
2022/11/16 01:44:57;;;;;;;132.80;42.13;;;8.80;99.90;;;;;;6232177;23;20011;-80
2022/11/16 01:47:24;;;;;;;140.10;41.22;;;8.80;99.90;;;;;;6237120;23;20000;-79
2022/11/16 01:50:06;;;;;;;145.05;42.03;;;8.80;99.90;;;;;;6231850;23;20000;-80
2022/11/16 01:52:38;;;;;;;149.10;44.47;;;8.80;99.90;;;;;;6210323;23;20333;-80
2022/11/16 01:55:05;;;;;;;135.32;43.90;;;8.80;99.90;;;;;;6231865;23;20039;-80
2022/11/16 01:57:44;;;;;;;142.40;43.28;;;8.80;99.90;;;;;;6230204;23;19996;-79
2022/11/16 02:00:13;;;;;;;139.55;45.58;;;8.80;99.90;;;;;;6229409;23;20004;-80
2022/11/16 02:02:51;;;;;;;135.23;44.00;;;8.80;99.90;;;;;;6207286;23;20000;-79
2022/11/16 02:05:51;;;;;;;158.98;44.15;;;8.90;99.90;;;;;;6232912;23;20115;-80
2022/11/16 02:11:18;;;;;;;126.95;41.72;;;8.90;99.90;;;;;;6237399;23;20004;-80
2022/11/16 02:14:04;;;;;;;141.30;43.20;;;8.90;99.90;;;;;;6234998;23;20062;-79
2022/11/16 02:16:54;;;;;;;132.30;42.47;;;8.90;99.90;;;;;;6213815;23;20020;-79
2022/11/16 02:20:04;;;;;;;133.40;43.92;;;8.90;99.90;;;;;;6236816;23;20019;-80
2022/11/16 02:23:09;;;;;;;127.53;41.35;;;8.90;99.90;;;;;;6232271;23;20008;-79
2022/11/16 02:26:01;;;;;;;139.93;42.28;;;8.80;99.90;;;;;;6231765;23;20368;-79
2022/11/16 02:28:53;;;;;;;137.25;45.50;;;8.80;99.90;;;;;;6206749;23;20099;-80
2022/11/16 02:31:26;;;;;;;144.50;43.15;;;8.80;99.90;;;;;;6229868;23;20100;-79
2022/11/16 02:33:53;;;;;;;135.23;44.22;;;8.80;99.90;;;;;;6230050;23;20015;-79
2022/11/16 02:36:22;;;;;;;139.27;44.40;;;8.80;99.90;;;;;;6255298;23;20083;-80
2022/11/16 02:39:06;;;;;;;143.23;45.17;;;8.80;99.90;;;;;;6228545;23;20065;-80
2022/11/16 02:41:38;;;;;;;149.07;45.42;;;8.80;99.90;;;;;;6253687;23;20015;-79
2022/11/16 02:44:11;;;;;;;142.60;44.00;;;8.80;99.90;;;;;;6226091;23;20016;-81
2022/11/16 02:46:40;;;;;;;153.82;45.50;;;8.80;99.90;;;;;;6226644;23;20349;-80
2022/11/16 02:49:13;;;;;;;154.00;43.88;;;8.80;99.90;;;;;;6203534;23;20465;-80
2022/11/16 02:51:41;;;;;;;138.68;42.72;;;8.80;99.90;;;;;;6229056;23;20015;-80
2022/11/16 02:54:19;;;;;;;143.25;43.33;;;8.80;99.90;;;;;;6230346;23;20000;-81
2022/11/16 02:57:26;;;;;;;133.20;43.15;;;8.80;99.90;;;;;;6228557;23;20390;-79
2022/11/16 02:59:56;;;;;;;142.07;44.65;;;8.80;99.90;;;;;;6206884;23;20008;-81
2022/11/16 03:02:26;;;;;;;137.30;45.10;;;8.80;99.90;;;;;;6229761;23;20007;-79
2022/11/16 03:05:16;;;;;;;163.48;47.45;;;8.80;99.90;;;;;;6229149;23;20011;-80
2022/11/16 03:08:02;;;;;;;138.70;45.35;;;8.80;99.90;;;;;;6228482;23;20023;-79
2022/11/16 03:13:17;;;;;;;153.18;49.67;;;8.80;99.90;;;;;;6256429;23;20054;-79
2022/11/16 03:15:43;;;;;;;153.55;45.63;;;8.70;99.90;;;;;;6228841;23;20007;-80
2022/11/16 03:18:14;;;;;;;144.85;45.42;;;8.70;99.90;;;;;;6229258;23;20008;-80
2022/11/16 03:20:42;;;;;;;138.30;45.28;;;8.60;99.90;;;;;;6259029;23;20004;-79
2022/11/16 03:23:11;;;;;;;147.30;45.45;;;8.60;99.90;;;;;;6235687;23;20000;-78
2022/11/16 03:25:51;;;;;;;157.90;47.13;;;8.60;99.90;;;;;;6219970;23;20415;-79
2022/11/16 03:28:36;;;;;;;160.55;46.58;;;8.60;99.90;;;;;;6258099;23;20430;-80
2022/11/16 03:31:18;;;;;;;157.65;44.83;;;8.60;99.90;;;;;;6248907;23;20006;-79
2022/11/16 03:33:52;;;;;;;174.75;49.30;;;8.50;99.90;;;;;;6249477;23;20004;-79
2022/11/16 03:36:31;;;;;;;174.13;46.25;;;8.50;99.90;;;;;;6223157;23;20013;-80
2022/11/16 03:39:02;;;;;;;197.57;47.88;;;8.40;99.90;;;;;;6222036;23;20064;-80
2022/11/16 03:41:31;;;;;;;163.13;45.72;;;8.50;99.90;;;;;;6222916;23;20080;-79
2022/11/16 03:43:58;;;;;;;159.32;46.15;;;8.40;99.90;;;;;;6222790;23;20000;-80
2022/11/16 03:46:24;;;;;;;165.50;48.22;;;8.40;99.90;;;;;;6222087;23;20016;-77
2022/11/16 03:48:58;;;;;;;180.90;46.67;;;8.30;99.90;;;;;;6196129;23;20088;-79
2022/11/16 03:51:27;;;;;;;148.35;46.50;;;8.40;99.90;;;;;;6222624;23;20015;-79
2022/11/16 03:53:54;;;;;;;153.00;45.85;;;8.30;99.90;;;;;;6222094;23;20004;-78
2022/11/16 03:56:20;;;;;;;147.77;46.15;;;8.30;99.90;;;;;;6223886;23;20008;-79
2022/11/16 03:58:46;;;;;;;159.70;48.30;;;8.30;99.90;;;;;;6224162;23;20016;-79
2022/11/16 04:01:12;;;;;;;152.52;46.63;;;8.30;99.90;;;;;;6249805;23;20076;-80
2022/11/16 04:03:39;;;;;;;151.52;46.05;;;8.30;99.90;;;;;;6221885;23;20092;-80
2022/11/16 04:25:46;;;;;;;142.43;46.00;;;8.40;99.90;;;;;;6221314;23;19922;-79
2022/11/16 04:28:21;;;;;;;147.95;45.92;;;8.40;99.90;;;;;;6248229;23;20004;-80
2022/11/16 04:39:14;;;;;;;162.87;46.73;;;8.40;99.90;;;;;;6236703;23;20012;-78
2022/11/16 04:47:05;;;;;;;155.43;45.72;;;8.50;99.90;;;;;;6221362;23;20018;-80
2022/11/16 04:47:15;;;;;;;168.32;46.70;;;8.40;99.90;;;;;;6220873;22;20004;-81
2022/11/16 04:49:41;;;;;;;148.40;45.30;;;8.40;99.90;;;;;;6220124;23;20018;-79
2022/11/16 04:52:07;;;;;;;158.40;48.40;;;8.40;99.90;;;;;;6220641;23;20036;-80
2022/11/16 04:54:33;;;;;;;171.65;49.22;;;8.40;99.90;;;;;;6221481;23;20004;-79
2022/11/16 04:57:01;;;;;;;166.63;49.50;;;8.40;99.90;;;;;;6196987;23;20019;-80
2022/11/16 04:59:27;;;;;;;159.15;46.92;;;8.40;99.90;;;;;;6222019;23;20350;-78
2022/11/16 05:02:08;;;;;;;142.90;45.50;;;8.30;99.90;;;;;;6248495;23;20015;-81
2022/11/16 05:04:43;;;;;;;178.48;47.45;;;8.40;99.90;;;;;;6198455;23;20008;-79
2022/11/16 05:07:12;;;;;;;169.35;49.58;;;8.40;99.90;;;;;;6221749;23;20066;-79
2022/11/16 05:09:47;;;;;;;147.15;47.90;;;8.30;99.90;;;;;;6221793;23;20126;-78
2022/11/16 05:12:18;;;;;;;;;;;8.30;99.90;;;;;;6224057;23;20004;-80
2022/11/16 05:14:46;;;;;;;164.93;48.47;;;8.30;99.90;;;;;;6223127;23;19908;-79
2022/11/16 05:17:14;;;;;;;173.45;48.03;;;8.40;99.90;;;;;;6252825;23;20000;-82
2022/11/16 05:22:26;;;;;;;153.27;47.80;;;8.30;99.90;;;;;;6229699;23;20034;-79
2022/11/16 05:24:53;;;;;;;189.25;48.40;;;8.40;99.90;;;;;;6230288;23;20012;-79
2022/11/16 05:27:21;;;;;;;158.88;48.90;;;8.40;99.90;;;;;;6229652;23;20100;-79
2022/11/16 05:29:48;;;;;;;166.00;47.13;;;8.40;99.90;;;;;;6226283;23;20415;-79
2022/11/16 05:32:18;;;;;;;155.57;46.15;;;8.40;99.90;;;;;;6231230;23;20011;-77
2022/11/16 05:34:45;;;;;;;158.77;47.63;;;8.40;99.90;;;;;;6256547;23;20004;-80
2022/11/16 05:37:12;;;;;;;158.05;45.47;;;8.40;99.90;;;;;;6231940;23;20039;-78
2022/11/16 05:39:38;;;;;;;137.73;46.22;;;8.40;99.90;;;;;;6227698;23;20042;-79
2022/11/16 05:42:05;;;;;;;146.88;44.67;;;8.50;99.90;;;;;;6224944;23;20004;-82
2022/11/16 05:44:31;;;;;;;131.18;45.55;;;8.50;99.90;;;;;;6226575;23;20008;-79
2022/11/16 05:46:57;;;;;;;129.35;45.55;;;8.50;99.90;;;;;;6203657;23;20009;-80
2022/11/16 05:49:25;;;;;;;152.80;45.17;;;8.50;99.90;;;;;;6225972;23;20004;-81
2022/11/16 05:51:52;;;;;;;148.55;46.13;;;8.50;99.90;;;;;;6236700;23;20001;-79
2022/11/16 05:54:26;;;;;;;143.20;45.45;;;8.40;99.90;;;;;;6227952;23;20007;-79
2022/11/16 05:56:53;;;;;;;155.55;47.28;;;8.40;99.90;;;;;;6226051;23;20068;-81
2022/11/16 05:59:21;;;;;;;146.10;45.88;;;8.40;99.90;;;;;;6226079;23;20081;-82
2022/11/16 06:01:50;;;;;;;135.27;44.75;;;8.40;99.90;;;;;;6224600;23;20008;-82
2022/11/16 06:04:17;;;;;;;143.52;47.22;;;8.40;99.90;;;;;;6230601;23;20040;-79
2022/11/16 06:06:43;;;;;;;139.77;44.63;;;8.40;99.90;;;;;;6224795;23;20008;-80
2022/11/16 06:09:11;;;;;;;135.93;48.00;;;8.40;99.90;;;;;;6226328;23;20059;-81
2022/11/16 06:11:38;;;;;;;152.80;46.70;;;8.40;99.90;;;;;;6252227;23;20065;-80
2022/11/16 06:14:05;;;;;;;143.25;45.35;;;8.40;99.90;;;;;;6224424;23;20027;-81
2022/11/16 06:16:32;;;;;;;152.30;48.53;;;8.40;99.90;;;;;;6199925;23;20016;-81
2022/11/16 06:19:00;;;;;;;142.60;46.40;;;8.50;99.90;;;;;;6230799;23;20004;-82
2022/11/16 06:21:26;;;;;;;156.63;47.10;;;8.40;99.90;;;;;;6260918;23;20080;-78
2022/11/16 06:23:53;;;;;;;150.35;46.83;;;8.40;99.90;;;;;;6233741;23;20008;-81
2022/11/16 06:26:18;;;;;;;149.30;46.10;;;8.40;99.90;;;;;;6234094;23;20012;-80
2022/11/16 06:28:45;;;;;;;145.35;46.70;;;8.40;99.90;;;;;;6233877;23;20069;-80
2022/11/16 06:31:12;;;;;;;159.30;47.72;;;8.40;99.90;;;;;;6234567;23;20064;-79
2022/11/16 06:33:40;;;;;;;157.50;48.20;;;8.40;99.90;;;;;;6233756;23;20004;-81
2022/11/16 06:36:13;;;;;;;142.60;44.97;;;8.40;99.90;;;;;;6236434;23;20019;-81
2022/11/16 06:38:39;;;;;;;139.20;43.83;;;8.40;99.90;;;;;;6199450;23;20417;-81
2022/11/16 06:41:07;;;;;;;135.98;46.22;;;8.40;99.90;;;;;;6258234;23;20000;-80
2022/11/16 06:43:38;;;;;;;148.57;47.42;;;8.40;99.90;;;;;;6223722;23;20413;-82
2022/11/16 06:46:05;;;;;;;139.05;47.13;;;8.40;99.90;;;;;;6223481;23;20092;-82
2022/11/16 06:48:32;;;;;;;143.88;46.13;;;8.40;99.90;;;;;;6223316;23;20042;-83
2022/11/16 06:51:03;;;;;;;162.20;48.60;;;8.40;99.90;;;;;;6230236;23;20042;-82
2022/11/16 06:53:29;;;;;;;139.82;46.35;;;8.40;99.90;;;;;;6240109;23;20004;-80
2022/11/16 06:56:04;;;;;;;166.43;53.53;;;8.40;99.90;;;;;;6211852;23;20008;-82
2022/11/16 06:58:34;;;;;;;191.93;68.90;;;8.50;99.90;;;;;;6235221;23;20011;-82
2022/11/16 07:01:06;;;;;;;143.43;46.60;;;8.50;99.90;;;;;;6206891;23;20004;-80
2022/11/16 07:03:34;;;;;;;116.93;42.75;;;8.50;99.90;;;;;;6235853;23;20350;-81
2022/11/16 07:06:13;;;;;;;127.30;44.08;;;8.50;99.90;;;;;;6203323;23;20012;-83
2022/11/16 07:08:41;;;;;;;111.20;40.22;;;8.50;99.90;;;;;;6226494;23;20000;-81
2022/11/16 07:11:09;;;;;;;117.70;41.25;;;8.50;99.90;;;;;;6236343;23;20007;-82
2022/11/16 07:13:37;;;;;;;119.97;40.95;;;8.60;99.90;;;;;;6229782;23;20004;-79
2022/11/16 07:16:09;;;;;;;111.10;39.40;;;8.60;99.90;;;;;;6222512;23;20011;-79
2022/11/16 07:18:40;;;;;;;114.38;39.42;;;8.70;99.90;;;;;;6221613;23;20015;-81
2022/11/16 07:21:08;;;;;;;112.65;38.72;;;8.60;99.90;;;;;;6198381;23;20027;-81
2022/11/16 07:23:35;;;;;;;115.90;38.67;;;8.60;99.90;;;;;;6224600;23;20015;-81
2022/11/16 07:26:02;;;;;;;109.25;40.35;;;8.60;99.90;;;;;;6221894;23;20008;-79
2022/11/16 07:28:40;;;;;;;93.70;38.10;;;8.60;99.90;;;;;;6223017;23;20004;-80
2022/11/16 07:31:08;;;;;;;100.18;38.65;;;8.60;99.90;;;;;;6223188;23;20388;-78
2022/11/16 07:33:35;;;;;;;101.43;36.55;;;8.60;99.90;;;;;;6222251;23;20000;-79
2022/11/16 07:36:17;;;;;;;97.28;36.78;;;8.60;99.90;;;;;;6249989;23;20004;-81
2022/11/16 07:38:43;;;;;;;92.88;35.95;;;8.60;99.90;;;;;;6222599;23;20012;-78
2022/11/16 07:41:12;;;;;;;94.38;35.22;;;8.60;99.90;;;;;;6223151;23;20414;-80
2022/11/16 07:43:47;;;;;;;99.80;38.97;;;8.60;99.90;;;;;;6224393;23;20058;-80
2022/11/16 07:46:20;;;;;;;97.00;35.38;;;8.60;99.90;;;;;;6226748;23;20035;-81
2022/11/16 07:48:47;;;;;;;92.35;35.20;;;8.70;99.90;;;;;;6224325;23;20008;-80
2022/11/16 07:51:15;;;;;;;92.30;36.80;;;8.70;99.90;;;;;;6223444;23;20492;-79
2022/11/16 07:53:51;;;;;;;81.05;34.20;;;8.80;99.90;;;;;;6223737;23;20087;-78
2022/11/16 07:56:16;;;;;;;95.13;35.40;;;8.80;99.90;;;;;;6223289;23;20035;-80
2022/11/16 07:58:44;;;;;;;91.80;36.55;;;8.80;99.90;;;;;;6252702;23;20011;-80
2022/11/16 08:01:14;;;;;;;88.32;35.63;;;8.80;99.90;;;;;;6229929;23;20072;-79
2022/11/16 08:03:42;;;;;;;91.28;35.65;;;8.80;99.90;;;;;;6226924;23;20034;-79
2022/11/16 08:06:13;;;;;;;85.50;35.00;;;8.90;99.90;;;;;;6226984;23;20009;-78
2022/11/16 08:08:42;;;;;;;91.05;34.40;;;8.80;99.90;;;;;;6207043;23;20071;-79
2022/11/16 08:11:10;;;;;;;91.93;34.25;;;8.90;99.90;;;;;;6223358;23;20005;-78
2022/11/16 08:13:38;;;;;;;90.72;34.83;;;8.90;99.90;;;;;;6253656;23;20000;-79
2022/11/16 08:16:08;;;;;;;84.78;34.17;;;8.90;99.90;;;;;;6256105;23;19988;-80
2022/11/16 08:18:35;;;;;;;80.15;32.78;;;8.90;99.90;;;;;;6229470;23;20012;-79
2022/11/16 08:21:02;;;;;;;93.85;34.55;;;8.90;99.90;;;;;;6223101;23;20078;-78
2022/11/16 08:23:29;;;;;;;88.35;33.83;;;8.90;99.90;;;;;;6249244;23;20008;-79
2022/11/16 08:25:59;;;;;;;80.72;31.13;;;8.90;99.90;;;;;;6221054;23;20438;-80
2022/11/16 08:28:29;;;;;;;82.63;33.70;;;8.80;99.90;;;;;;6198851;23;20055;-79
2022/11/16 08:30:57;;;;;;;81.45;32.13;;;8.90;99.90;;;;;;6224243;23;20083;-80
2022/11/16 08:33:23;;;;;;;84.85;34.03;;;8.80;99.90;;;;;;6198095;23;20391;-78
2022/11/16 08:35:53;;;;;;;83.25;32.35;;;8.90;99.90;;;;;;6222162;23;20058;-79
2022/11/16 08:38:20;;;;;;;85.07;32.13;;;8.90;99.90;;;;;;6222637;23;20018;-79
2022/11/16 08:40:49;;;;;;;70.57;30.65;;;8.90;99.90;;;;;;6222829;23;20007;-79
2022/11/16 08:43:15;;;;;;;66.35;29.63;;;8.90;99.90;;;;;;6224652;23;20062;-80
2022/11/16 08:45:47;;;;;;;67.32;31.15;;;8.90;99.90;;;;;;6222560;23;20070;-80
2022/11/16 08:48:12;;;;;;;68.20;29.67;;;9.00;99.90;;;;;;6223599;23;20010;-80
2022/11/16 08:50:38;;;;;;;68.07;30.00;;;9.00;99.90;;;;;;6224850;23;20088;-79
2022/11/16 08:53:06;;;;;;;70.10;29.60;;;9.00;99.90;;;;;;6229625;23;20004;-78
2022/11/16 08:55:32;;;;;;;68.60;28.85;;;9.00;99.90;;;;;;6229687;23;20008;-78
2022/11/16 08:57:58;;;;;;;72.22;29.42;;;9.10;99.90;;;;;;6204739;23;20008;-80
2022/11/16 09:00:24;;;;;;;61.58;26.83;;;9.10;99.90;;;;;;6257538;23;20007;-79
2022/11/16 09:02:50;;;;;;;66.72;28.20;;;9.10;99.90;;;;;;6256418;23;20038;-82
2022/11/16 09:05:16;;;;;;;63.60;27.90;;;9.00;99.90;;;;;;6205063;23;20008;-78
2022/11/16 09:07:44;;;;;;;58.97;26.40;;;9.10;99.90;;;;;;6256114;23;20039;-79
2022/11/16 09:10:10;;;;;;;68.25;27.67;;;9.10;99.90;;;;;;6256342;23;20003;-78
2022/11/16 09:12:37;;;;;;;70.40;28.15;;;9.00;99.90;;;;;;6227189;23;20054;-79
2022/11/16 09:15:04;;;;;;;62.58;28.20;;;9.10;99.90;;;;;;6254533;23;19996;-81
2022/11/16 09:17:30;;;;;;;64.63;27.30;;;9.00;99.90;;;;;;6231601;23;20004;-79
2022/11/16 09:19:56;;;;;;;66.18;29.27;;;9.10;99.90;;;;;;6229106;23;20301;-78
2022/11/16 09:22:22;;;;;;;62.72;27.13;;;9.10;99.90;;;;;;6226429;23;20008;-79
2022/11/16 09:24:48;;;;;;;64.80;27.73;;;9.10;99.90;;;;;;6250240;22;20013;-79
2022/11/16 09:27:13;;;;;;;55.88;25.50;;;9.10;99.90;;;;;;6221417;23;20767;-77
2022/11/16 09:29:39;;;;;;;62.70;26.77;;;9.10;99.90;;;;;;6247322;23;20000;-77
2022/11/16 09:32:05;;;;;;;55.63;26.15;;;9.10;99.90;;;;;;6248261;23;20315;-78
2022/11/16 09:34:33;;;;;;;61.75;26.05;;;9.20;99.90;;;;;;6247902;23;20384;-76
2022/11/16 09:36:59;;;;;;;56.38;24.88;;;9.20;99.90;;;;;;6250609;22;20008;-78
2022/11/16 09:39:26;;;;;;;58.58;24.65;;;9.30;99.90;;;;;;6222204;23;20598;-76
2022/11/16 09:42:12;;;;;;;56.58;25.83;;;9.40;99.90;;;;;;6249398;23;20039;-77
2022/11/16 09:44:53;;;;;;;59.88;28.08;;;9.40;99.90;;;;;;6246606;23;20342;-77
2022/11/16 09:47:23;;;;;;;59.00;27.20;;;9.50;99.90;;;;;;6247980;22;20015;-76
2022/11/16 09:49:53;;;;;;;55.38;24.52;;;9.50;99.90;;;;;;6245920;22;20030;-78
2022/11/16 09:52:31;;;;;;;53.78;24.52;;;9.50;99.90;;;;;;6250205;22;20000;-76
2022/11/16 09:55:00;;;;;;;54.47;24.10;;;9.50;99.90;;;;;;6256504;23;19996;-78
2022/11/16 09:57:33;;;;;;;51.85;23.40;;;9.50;99.90;;;;;;6221356;23;20035;-77
2022/11/16 10:00:21;;;;;;;53.00;25.10;;;9.50;99.90;;;;;;6249469;23;20058;-77
2022/11/16 10:03:03;;;;;;;53.00;23.83;;;9.50;99.90;;;;;;6249442;23;20004;-78
2022/11/16 10:05:39;;;;;;;54.67;23.90;;;9.50;99.90;;;;;;6223415;23;20024;-78
2022/11/16 10:08:38;;;;;;;48.13;23.42;;;9.60;99.90;;;;;;6249274;23;20004;-78
2022/11/16 10:11:25;;;;;;;47.78;23.60;;;9.60;99.90;;;;;;6250158;23;20004;-78
2022/11/16 10:14:01;;;;;;;51.42;23.48;;;9.60;99.90;;;;;;6249128;22;20012;-78
2022/11/16 10:16:48;;;;;;;52.65;22.83;;;9.60;99.90;;;;;;6249134;22;20040;-79
2022/11/16 10:19:31;;;;;;;50.40;23.58;;;9.50;99.90;;;;;;6249998;23;20004;-77
2022/11/16 10:22:15;;;;;;;50.47;24.55;;;9.50;99.90;;;;;;6247838;22;20011;-76
2022/11/16 10:24:44;;;;;;;47.08;22.45;;;9.40;99.90;;;;;;6249138;23;20030;-79
2022/11/16 10:27:45;;;;;;;54.15;22.83;;;9.50;99.90;;;;;;6251107;23;20465;-78
2022/11/16 10:30:15;;;;;;;51.33;23.92;;;9.50;99.90;;;;;;6170438;23;20051;-78
2022/11/16 10:32:59;;;;;;;48.17;22.33;;;9.50;99.90;;;;;;6250861;23;20000;-77
2022/11/16 10:35:24;;;;;;;44.03;20.73;;;9.50;99.90;;;;;;6230434;23;20004;-78
2022/11/16 10:37:51;;;;;;;45.72;21.30;;;9.50;99.90;;;;;;6229847;23;20011;-78
2022/11/16 10:40:28;;;;;;;46.65;22.00;;;9.50;99.90;;;;;;6205930;23;20007;-78
2022/11/16 10:43:11;;;;;;;40.95;20.90;;;9.50;99.90;;;;;;6256168;23;20068;-82
2022/11/16 10:45:59;;;;;;;48.00;21.63;;;9.50;99.90;;;;;;6256600;23;20004;-79
2022/11/16 10:48:54;;;;;;;41.58;20.48;;;9.50;99.90;;;;;;6255535;23;20060;-80
2022/11/16 10:51:20;;;;;;;45.53;20.20;;;9.50;99.90;;;;;;6256237;23;20093;-80
2022/11/16 10:53:46;;;;;;;43.15;21.83;;;9.50;99.90;;;;;;6256515;23;20256;-79
2022/11/16 10:56:16;;;;;;;50.72;23.70;;;9.50;99.90;;;;;;6227868;23;20008;-81
2022/11/16 10:58:51;;;;;;;49.70;23.20;;;9.60;99.90;;;;;;6258863;23;20011;-79
2022/11/16 11:01:28;;;;;;;42.55;21.00;;;9.60;99.90;;;;;;6261912;23;20008;-80
2022/11/16 11:03:54;;;;;;;44.75;22.70;;;9.60;99.90;;;;;;6264263;23;20004;-77
2022/11/16 11:06:25;;;;;;;39.55;20.85;;;9.50;99.90;;;;;;6238114;23;20178;-78
2022/11/16 11:08:51;;;;;;;35.67;17.90;;;9.50;99.90;;;;;;6239900;23;20192;-77
2022/11/16 11:14:23;;;;;;;33.30;17.77;;;9.50;99.90;;;;;;6114747;23;20017;-79
2022/11/16 11:16:52;;;;;;;37.65;18.27;;;9.60;99.90;;;;;;6237999;23;20004;-77
2022/11/16 11:19:18;;;;;;;29.70;16.40;;;9.60;99.90;;;;;;6270820;23;20004;-77
2022/11/16 11:21:44;;;;;;;30.60;16.23;;;9.60;99.90;;;;;;6272080;22;19998;-78
2022/11/16 11:24:15;;;;;;;29.05;16.33;;;9.60;99.90;;;;;;6271565;22;20023;-79
2022/11/16 11:26:41;;;;;;;33.53;17.98;;;9.60;99.90;;;;;;6270399;22;20081;-78
2022/11/16 11:29:31;;;;;;;31.10;16.25;;;9.60;99.90;;;;;;6269683;23;20004;-79
2022/11/16 11:32:03;;;;;;;29.75;15.45;;;9.60;99.90;;;;;;6269149;23;19996;-79
2022/11/16 11:34:32;;;;;;;31.25;16.05;;;9.70;99.90;;;;;;6268225;23;20008;-78
2022/11/16 11:37:01;;;;;;;26.90;14.63;;;9.70;99.90;;;;;;6269457;23;20000;-81
2022/11/16 11:39:36;;;;;;;28.02;15.60;;;9.80;99.90;;;;;;6269265;22;20000;-80
2022/11/16 11:42:05;;;;;;;27.75;14.77;;;9.80;99.90;;;;;;6271151;23;20004;-80
2022/11/16 11:44:43;;;;;;;29.83;15.70;;;9.80;99.90;;;;;;6245134;23;20007;-81
2022/11/16 11:47:22;;;;;;;31.15;15.23;;;9.80;99.90;;;;;;6272746;22;20044;-79
2022/11/16 11:50:13;;;;;;;29.92;15.52;;;9.70;99.90;;;;;;6272746;22;20004;-81
2022/11/16 11:52:41;;;;;;;28.38;14.32;;;9.80;99.90;;;;;;6273132;22;19996;-82
2022/11/16 11:55:13;;;;;;;28.10;15.00;;;9.80;99.90;;;;;;6270617;22;20011;-78
2022/11/16 11:57:45;;;;;;;29.23;15.68;;;9.80;99.90;;;;;;6264343;23;20000;-78
2022/11/16 12:00:13;;;;;;;29.90;14.98;;;9.80;99.90;;;;;;6234732;23;20019;-79
2022/11/16 12:02:52;;;;;;;29.60;15.30;;;9.80;99.90;;;;;;6260796;23;20000;-79
2022/11/16 12:06:09;;;;;;;33.25;15.88;;;9.80;99.90;;;;;;6211466;23;20087;-80
2022/11/16 12:08:52;;;;;;;25.48;13.73;;;9.80;99.90;;;;;;6199798;23;20032;-80
2022/11/16 12:11:36;;;;;;;29.02;15.95;;;9.90;99.90;;;;;;6263116;23;20087;-81
2022/11/16 12:14:22;;;;;;;27.90;14.23;;;9.90;99.90;;;;;;6257093;23;20071;-80
2022/11/16 12:17:13;;;;;;;27.75;14.10;;;9.90;99.90;;;;;;6169164;23;20246;-80
2022/11/16 12:20:04;;;;;;;20.85;10.35;;;10.00;99.90;;;;;;6260586;23;20000;-79
2022/11/16 12:22:49;;;;;;;20.83;11.10;;;9.90;99.90;;;;;;6260040;23;20008;-80
2022/11/16 12:25:40;;;;;;;20.90;11.60;;;9.90;99.90;;;;;;6254573;23;20011;-80
2022/11/16 12:28:30;;;;;;;21.08;10.80;;;9.80;99.90;;;;;;6257769;23;20235;-79
2022/11/16 12:31:08;;;;;;;23.83;11.80;;;9.80;99.90;;;;;;6231584;23;20004;-80
2022/11/16 12:33:56;;;;;;;20.17;10.80;;;9.90;99.90;;;;;;6230135;23;20004;-81
2022/11/16 12:36:46;;;;;;;21.92;12.25;;;9.90;99.90;;;;;;6252555;23;20011;-78
2022/11/16 12:39:23;;;;;;;22.17;11.40;;;9.90;99.90;;;;;;6250883;23;20030;-80
2022/11/16 12:42:17;;;;;;;22.50;10.07;;;10.00;99.90;;;;;;6225075;23;20083;-77
2022/11/16 12:44:52;;;;;;;18.98;10.50;;;10.00;99.90;;;;;;6251615;23;20015;-78
2022/11/16 12:47:45;;;;;;;24.52;11.18;;;10.00;99.90;;;;;;6252456;23;20008;-78
2022/11/16 12:50:18;;;;;;;21.38;11.85;;;10.10;99.90;;;;;;6253196;23;20672;-78
2022/11/16 12:52:58;;;;;;;23.85;11.15;;;10.00;99.90;;;;;;6225539;23;20015;-77
2022/11/16 12:55:42;;;;;;;23.33;12.07;;;10.00;99.90;;;;;;6252448;23;20000;-78
2022/11/16 12:58:20;;;;;;;20.92;11.10;;;9.90;99.90;;;;;;6252611;23;20385;-77
2022/11/16 13:01:01;;;;;;;21.05;11.63;;;10.00;99.90;;;;;;6227233;23;20063;-81
2022/11/16 13:03:46;;;;;;;16.80;9.85;;;10.00;99.90;;;;;;6232010;23;20028;-79
2022/11/16 13:06:33;;;;;;;20.73;10.52;;;10.00;99.90;;;;;;6260361;23;20545;-80
2022/11/16 13:09:05;;;;;;;20.02;10.98;;;10.00;99.90;;;;;;6258522;23;20449;-81
2022/11/16 13:11:40;;;;;;;21.83;10.80;;;10.00;99.90;;;;;;6259286;23;20080;-79
2022/11/16 13:14:23;;;;;;;20.98;9.00;;;9.90;99.90;;;;;;6257992;23;20005;-79
2022/11/16 13:16:50;;;;;;;24.15;10.77;;;9.80;99.90;;;;;;6259517;23;20010;-79
2022/11/16 13:19:17;;;;;;;25.77;10.68;;;9.70;99.90;;;;;;6258724;23;20334;-81
2022/11/16 13:21:52;;;;;;;22.60;9.48;;;9.70;99.90;;;;;;6257524;23;20019;-80
2022/11/16 13:24:43;;;;;;;19.85;9.68;;;9.60;99.90;;;;;;6257797;23;20010;-80
2022/11/16 13:27:33;;;;;;;19.52;9.82;;;9.70;99.90;;;;;;6230695;23;20008;-80
2022/11/16 13:30:22;;;;;;;20.65;9.63;;;9.70;99.90;;;;;;6256456;23;20001;-80
2022/11/16 13:33:16;;;;;;;20.77;10.18;;;9.60;99.90;;;;;;6256468;23;20059;-80
2022/11/16 13:35:42;;;;;;;21.27;8.30;;;9.70;99.90;;;;;;6231078;23;20034;-79
2022/11/16 13:38:12;;;;;;;16.17;8.85;;;9.70;99.90;;;;;;6231683;23;20031;-82
2022/11/16 13:40:38;;;;;;;17.73;8.30;;;9.70;99.90;;;;;;6257274;23;20004;-81
2022/11/16 13:43:10;;;;;;;14.18;7.70;;;9.70;99.90;;;;;;6263782;23;20004;-81